WEATHER DATA

YESTERDAY
Time Temp. Dewp. Hum. Wind dir Wind speed Wind gust Bar. 1h Prec. 24h Prec.
00:10 6.1 4.7 91 231 1.1 1.9 1024.6 0.0000 0.0000
00:30 6.1 4.7 91 223 1.4 3.3 1024.6 0.0000 0.0000
00:41 6.1 4.7 91 206 1.9 3.1 1024.5 0.0000 0.0000
00:50 6.3 5.1 92 210 2.5 3.9 1024.5 0.0000 0.0000
01:00 6.4 5.2 92 213 2.5 3.9 1024.4 0.0000 0.0000
01:10 6.6 5.2 91 213 1.9 3.9 1024.3 0.0000 0.0000
01:21 6.7 5.3 91 211 1.7 3.1 1024.3 0.0000 0.0000
01:31 6.8 5.4 91 213 0.8 2.2 1024.3 0.0000 0.0000
01:41 6.9 5.4 90 205 1.7 4.4 1024.3 0.0000 0.0000
01:51 6.9 5.2 89 204 1.7 3.3 1024.1 0.0000 0.0000
02:01 6.9 5.1 88 205 1.4 3.1 1024.2 0.0000 0.0000
02:11 6.9 5.1 88 210 1.7 3.3 1024.2 0.0000 0.0000
02:21 6.8 4.8 87 209 1.7 3.3 1024.2 0.0000 0.0000
02:32 6.8 4.8 87 209 1.1 2.8 1024.2 0.0000 0.0000
02:42 6.8 4.6 86 209 1.4 2.8 1024.2 0.0000 0.0000
02:51 6.8 4.6 86 215 1.4 2.8 1024.2 0.0000 0.0000
03:02 6.8 4.6 86 207 1.1 3.1 1024.1 0.0000 0.0000
03:12 6.8 4.6 86 198 1.1 2.5 1024.2 0.0000 0.0000
03:22 6.8 4.6 86 208 0.8 1.9 1024.2 0.0000 0.0000
03:32 6.9 4.7 86 213 0.8 1.7 1024.2 0.0000 0.0000
03:42 6.9 4.7 86 217 1.1 2.5 1024.1 0.0000 0.0000
03:52 7 4.8 86 233 1.1 1.9 1024.2 0.0000 0.0000
04:02 7 4.8 86 226 1.1 1.9 1024.2 0.0000 0.0000
04:12 6.9 4.7 86 232 1.4 2.5 1024.3 0.0000 0.0000
04:23 6.8 4.5 85 233 1.1 1.9 1024.3 0.0000 0.0000
04:33 6.7 4.5 86 230 1.1 1.7 1024.4 0.0000 0.0000
04:43 6.6 4.4 86 237 1.4 2.5 1024.3 0.0000 0.0000
04:53 6.5 4.3 86 233 1.7 2.5 1024.3 0.0000 0.0000
05:03 6.4 4.2 86 233 1.7 2.2 1024.4 0.0000 0.0000
05:13 6.3 4.1 86 233 1.4 2.2 1024.4 0.0000 0.0000
05:23 6.2 4.2 87 270 0.3 0.8 1024.5 0.0000 0.0000
05:34 6.2 4.2 87 225 0.3 0.8 1024.6 0.0000 0.0000
05:43 6.2 4.4 88 192 0.3 0.6 1024.6 0.0000 0.0000
05:53 6.2 4.4 88 232 0.6 1.1 1024.6 0.0000 0.0000
06:04 6.2 4.4 88 270 0.3 1.1 1024.5 0.0000 0.0000
06:14 6.3 4.5 88 45 0.3 1.1 1024.6 0.0000 0.0000
06:24 6.3 4.6 89 315 0.3 1.7 1024.6 0.0000 0.0000
06:34 6.3 4.6 89 225 0.3 1.7 1024.5 0.0000 0.0000
06:44 6.4 4.7 89 210 0.3 0.6 1024.6 0.0000 0.0000
06:54 6.5 4.8 89 225 0.3 1.1 1024.6 0.0000 0.0000
07:04 6.5 4.8 89 225 0.3 0.8 1024.6 0.0000 0.0000
07:14 6.6 4.9 89 215 0.3 0.6 1024.7 0.0000 0.0000
07:25 6.6 4.9 89 236 0.3 0.6 1024.7 0.0000 0.0000
07:30 6.6 4.9 89 225 0.3 0.6 1024.7 0.0000 0.0000
07:44 6.7 5 89 146 0.3 0.8 1024.8 0.0000 0.0000
07:55 6.8 5.1 89 198 0.6 1.4 1025 0.0000 0.0000
08:05 6.9 5.4 90 346 2.8 2.8 1024.9 0.0000 0.0000
08:15 7.2 5.7 90 347 1.9 2.8 1025.1 0.0000 0.0000
08:25 7.5 6 90 245 0.8 1.4 1025.1 0.0000 0.0000
08:35 7.7 6.2 90 315 1.1 2.5 1025.2 0.0000 0.0000
08:45 8 6.5 90 336 1.1 2.2 1025.2 0.0000 0.0000
08:55 8.3 6.6 89 242 0.8 1.7 1025.2 0.0000 0.0000
09:06 8.6 6.9 89 225 0.8 1.9 1025.2 0.0000 0.0000
09:16 9 7.3 89 225 0.8 2.2 1025.3 0.0000 0.0000
09:26 9.3 7.6 89 218 0.8 1.9 1025.2 0.0000 0.0000
09:36 9.5 7.6 88 209 0.8 1.7 1025.2 0.0000 0.0000
09:46 9.6 7.5 87 235 0.8 1.4 1025.3 0.0000 0.0000
09:56 9.8 7.6 86 259 1.1 1.9 1025.5 0.0000 0.0000
10:06 9.9 7.7 86 239 0.8 1.7 1025.6 0.0000 0.0000
10:16 10 7.6 85 248 0.8 1.4 1025.5 0.0000 0.0000
10:22 10.1 7.7 85 245 0.8 1.4 1025.5 0.0000 0.0000
10:36 10.2 7.4 83 227 0.8 2.2 1025.4 0.0000 0.0000
10:46 10.2 7.3 82 225 0.6 1.4 1025.4 0.0000 0.0000
10:57 10.3 7.4 82 233 0.8 1.7 1025.4 0.0000 0.0000
11:07 10.3 7.2 81 237 0.6 1.4 1025.4 0.0000 0.0000
11:17 10.3 7.2 81 232 0.6 1.4 1025.3 0.0000 0.0000
11:22 10.3 7.2 81 244 0.6 1.7 1025.3 0.0000 0.0000
11:38 10.4 7.1 80 189 0.8 1.9 1025.3 0.0000 0.0000
11:47 10.3 7.2 81 233 0.6 1.4 1025.2 0.0000 0.0000
11:57 10.3 7.4 82 214 0.8 2.2 1025 0.0000 0.0000
12:08 10.3 7.5 83 195 0.6 1.4 1024.9 0.0000 0.0000
12:18 10.3 7.7 84 233 0.8 1.7 1024.9 0.0000 0.0000
12:28 10.3 7.7 84 236 0.6 1.4 1024.8 0.0000 0.0000
12:37 10.3 7.7 84 225 0.8 1.7 1024.6 0.0000 0.0000
12:48 10.2 7.6 84 227 0.6 1.4 1024.7 0.0000 0.0000
12:58 10.2 7.6 84 204 0.8 2.2 1024.5 0.0000 0.0000
13:08 10.3 7.7 84 214 1.1 2.2 1024.4 0.0000 0.0000
13:18 10.3 7.7 84 205 0.8 1.7 1024.3 0.0000 0.0000
13:29 10.4 7.6 83 215 1.1 2.2 1024.1 0.0000 0.0000
13:36 10.4 7.6 83 225 0.8 2.2 1024 0.0000 0.0000
13:47 10.5 7.6 82 202 1.1 2.2 1023.9 0.0000 0.0000
13:57 10.6 7.7 82 204 1.1 2.2 1023.8 0.0000 0.0000
14:07 10.6 7.7 82 207 1.1 2.2 1023.6 0.0000 0.0000
14:17 10.6 7.7 82 211 1.1 2.2 1023.5 0.0000 0.0000
14:27 10.6 7.7 82 208 1.1 2.2 1023.4 0.0000 0.0000
14:37 10.5 7.7 83 227 1.1 1.9 1023.4 0.0000 0.0000
14:47 10.5 7.7 83 188 0.8 1.9 1023.3 0.0000 0.0000
14:58 10.6 7.8 83 178 1.1 1.9 1023.2 0.0000 0.0000
15:08 10.6 7.8 83 187 1.1 2.8 1023.2 0.0000 0.0000
15:13 10.7 7.9 83 177 1.1 2.2 1023.2 0.0000 0.0000
15:28 10.7 7.9 83 217 0.8 2.2 1023.2 0.0000 0.0000
15:38 10.7 7.9 83 208 1.1 1.9 1023.2 0.0000 0.0000
15:48 10.6 7.8 83 219 1.1 1.9 1023.1 0.0000 0.0000
15:58 10.5 7.7 83 211 1.1 1.9 1023.1 0.0000 0.0000
16:09 10.4 7.6 83 219 1.1 2.5 1022.9 0.0000 0.0000
16:18 10.3 7.5 83 219 0.8 1.9 1022.9 0.0000 0.0000
16:28 10.2 7.4 83 254 0.8 1.7 1022.8 0.0000 0.0000
16:38 10.1 7.5 84 229 1.1 2.2 1022.8 0.0000 0.0000
16:49 10 7.4 84 198 0.8 2.2 1022.7 0.0000 0.0000
16:59 9.9 7.3 84 90 0.8 1.9 1022.7 0.0000 0.0000
17:09 9.8 7.4 85 27 0.8 2.2 1022.8 0.0000 0.0000
17:19 9.7 7.3 85 318 1.1 2.5 1022.9 0.0000 0.0000
17:29 9.6 7.2 85 322 1.1 4.2 1022.9 0.0000 0.0000
17:39 9.5 7.1 85 303 2.2 4.2 1022.8 0.0000 0.0000
17:49 9.4 7.2 86 262 1.7 4.2 1022.9 0.0000 0.0000
18:00 9.3 7.1 86 225 2.8 4.2 1022.9 0.0000 0.0000
18:10 9.3 7.1 86 226 2.5 3.6 1023 0.0000 0.0000
18:19 9.2 7.2 87 223 1.9 3.1 1023 0.0000 0.0000
18:29 9.1 7.1 87 223 1.4 2.5 1023 0.0000 0.0000
18:40 9 7 87 223 1.4 2.5 1023 0.0000 0.0000
19:00 8.9 7 88 225 1.4 2.2 1022.9 0.0000 0.0000
19:11 8.9 7 88 222 1.4 1.9 1022.9 0.0000 0.0000
19:30 8.8 7.1 89 223 1.4 1.9 1022.8 0.0000 0.0000
19:40 8.8 7.1 89 227 1.4 1.9 1022.8 0.0000 0.0000
20:01 8.8 7.3 90 223 1.4 2.5 1022.8 0.0000 0.0000
20:11 8.8 7.3 90 209 1.1 2.2 1022.7 0.0000 0.0000
20:21 8.8 7.3 90 212 1.4 2.2 1022.6 0.0000 0.0000
20:31 8.7 7.2 90 215 1.4 2.2 1022.5 0.0000 0.0000
20:41 8.7 7.3 91 219 1.4 2.2 1022.6 0.0000 0.0000
20:51 8.7 7.3 91 213 1.7 3.1 1022.4 0.0000 0.0000
21:01 8.7 7.3 91 214 1.1 1.9 1022.3 0.0000 0.0000
21:12 8.7 7.3 91 209 1.1 1.7 1022.3 0.0000 0.0000
21:22 8.6 7.2 91 205 1.1 1.7 1022.3 0.0000 0.0000
21:32 8.6 7.2 91 203 0.8 1.7 1022.4 0.0000 0.0000
21:42 8.6 7.2 91 238 0.8 1.9 1022.4 0.0000 0.0000
21:56 8.5 7.1 91 203 0.8 1.7 1022.2 0.0000 0.0000
22:06 8.5 7.1 91 194 0.6 1.4 1022.2 0.0000 0.0000
22:16 8.5 7.1 91 200 0.8 1.7 1022.2 0.0000 0.0000
22:26 8.4 7.2 92 210 0.8 1.7 1022.1 0.0000 0.0000
22:36 8.4 7.2 92 188 1.1 1.9 1022.1 0.0000 0.0000
22:47 8.4 7.2 92 209 1.1 1.9 1022.1 0.0000 0.0000
22:57 8.4 7.2 92 229 1.1 1.9 1022.1 0.0000 0.0000
23:07 8.4 7.2 92 230 1.4 2.5 1022 0.0000 0.0000
23:16 8.5 7.3 92 238 1.9 3.1 1021.9 0.0000 0.0000
23:27 8.5 7.3 92 237 2.2 3.3 1021.7 0.0000 0.0000
23:37 8.5 7.3 92 241 1.9 3.1 1021.6 0.0000 0.0000
23:47 8.5 7.3 92 241 1.7 2.5 1021.5 0.0000 0.0000
23:57 8.5 7.3 92 238 1.7 2.5 1021.4 0.0000

DAY STATISTIC

2020-02-19
TEMPERATURE
AVERAGE
8.5
HIGH
10.7
15:13
LOW
6.1
00:10
PRESSURE
AVERAGE
1023.9
HIGH
1025.6
10:06
LOW
1021.4
23:57
DEWPOINT
AVERAGE
6.5
HIGH
7.9
15:13
LOW
4.1
05:13
HUMIDITY
AVERAGE
87
HIGH
92
00:50
LOW
80
11:38
WIND SPEED
AVERAGE
1.1
HIGH
2.8
08:05
WIND GUST
AVERAGE
2.1
HIGH
4.4
01:41
WIND DIRECTION
PREVAILING
SW
73.2%
N
1.4
NE
1.4
E
0.7
SE
0.7
S
13.8
SW
73.2
W
4.3
NW
4.3
PRECIPITATION
RAIN HOUR
0.0
RAIN DAY
0.0
TEMPERATURE (°C)
LOW
6.1
HIGH
10.7
AVERAGE
8.5
PRESSURE (hpa)
LOW
1021.4
HIGH
1025.6
AVERAGE
1023.9
DEVICE